sensor_id;sensor_type;location;lat;lon;timestamp;P1;durP1;ratioP1;P2;durP2;ratioP2
46266;SDS011;31998;48.798;15.066;2023-04-24T00:01:56;29.83;;;11.13;;
46266;SDS011;31998;48.798;15.066;2023-04-24T00:04:23;46.07;;;13.13;;
46266;SDS011;31998;48.798;15.066;2023-04-24T00:06:50;106.40;;;13.50;;
46266;SDS011;31998;48.798;15.066;2023-04-24T00:09:18;43.90;;;9.67;;
46266;SDS011;31998;48.798;15.066;2023-04-24T00:11:44;43.77;;;9.97;;
46266;SDS011;31998;48.798;15.066;2023-04-24T00:14:09;18.93;;;8.73;;
46266;SDS011;31998;48.798;15.066;2023-04-24T00:16:34;79.27;;;13.20;;
46266;SDS011;31998;48.798;15.066;2023-04-24T00:19:00;51.53;;;13.40;;
46266;SDS011;31998;48.798;15.066;2023-04-24T00:21:25;69.13;;;13.33;;
46266;SDS011;31998;48.798;15.066;2023-04-24T00:23:51;156.77;;;15.90;;
46266;SDS011;31998;48.798;15.066;2023-04-24T00:26:16;61.90;;;12.20;;
46266;SDS011;31998;48.798;15.066;2023-04-24T00:28:41;62.40;;;12.23;;
46266;SDS011;31998;48.798;15.066;2023-04-24T00:31:07;167.27;;;17.70;;
46266;SDS011;31998;48.798;15.066;2023-04-24T00:33:32;137.67;;;15.30;;
46266;SDS011;31998;48.798;15.066;2023-04-24T00:35:57;114.07;;;16.13;;
46266;SDS011;31998;48.798;15.066;2023-04-24T00:38:23;121.53;;;16.73;;
46266;SDS011;31998;48.798;15.066;2023-04-24T00:40:48;152.40;;;17.27;;
46266;SDS011;31998;48.798;15.066;2023-04-24T00:43:15;40.83;;;12.43;;
46266;SDS011;31998;48.798;15.066;2023-04-24T00:45:40;65.43;;;11.87;;
46266;SDS011;31998;48.798;15.066;2023-04-24T00:48:05;57.07;;;14.30;;
46266;SDS011;31998;48.798;15.066;2023-04-24T00:50:31;35.00;;;10.27;;
46266;SDS011;31998;48.798;15.066;2023-04-24T00:52:56;85.37;;;13.73;;
46266;SDS011;31998;48.798;15.066;2023-04-24T00:55:22;128.33;;;15.17;;
46266;SDS011;31998;48.798;15.066;2023-04-24T00:57:47;273.03;;;18.10;;
46266;SDS011;31998;48.798;15.066;2023-04-24T01:00:13;437.30;;;17.63;;
46266;SDS011;31998;48.798;15.066;2023-04-24T01:02:40;41.63;;;11.20;;
46266;SDS011;31998;48.798;15.066;2023-04-24T01:05:08;48.10;;;10.97;;
46266;SDS011;31998;48.798;15.066;2023-04-24T01:07:34;76.83;;;13.17;;
46266;SDS011;31998;48.798;15.066;2023-04-24T01:09:59;60.53;;;14.73;;
46266;SDS011;31998;48.798;15.066;2023-04-24T01:12:25;35.80;;;12.67;;
46266;SDS011;31998;48.798;15.066;2023-04-24T01:14:50;19.63;;;11.30;;
46266;SDS011;31998;48.798;15.066;2023-04-24T01:17:15;107.77;;;16.17;;
46266;SDS011;31998;48.798;15.066;2023-04-24T01:19:40;37.77;;;13.03;;
46266;SDS011;31998;48.798;15.066;2023-04-24T01:22:15;30.37;;;12.23;;
46266;SDS011;31998;48.798;15.066;2023-04-24T01:24:41;58.13;;;12.30;;
46266;SDS011;31998;48.798;15.066;2023-04-24T01:27:07;129.53;;;16.10;;
46266;SDS011;31998;48.798;15.066;2023-04-24T01:29:32;66.93;;;13.97;;
46266;SDS011;31998;48.798;15.066;2023-04-24T01:31:57;328.23;;;30.80;;
46266;SDS011;31998;48.798;15.066;2023-04-24T01:34:23;328.93;;;17.00;;
46266;SDS011;31998;48.798;15.066;2023-04-24T01:36:48;256.27;;;17.43;;
46266;SDS011;31998;48.798;15.066;2023-04-24T01:39:14;85.50;;;11.27;;
46266;SDS011;31998;48.798;15.066;2023-04-24T01:41:40;304.73;;;19.83;;
46266;SDS011;31998;48.798;15.066;2023-04-24T01:44:05;190.30;;;13.20;;
46266;SDS011;31998;48.798;15.066;2023-04-24T01:46:31;296.60;;;18.93;;
46266;SDS011;31998;48.798;15.066;2023-04-24T01:48:56;366.63;;;24.30;;
46266;SDS011;31998;48.798;15.066;2023-04-24T01:51:23;276.00;;;19.70;;
46266;SDS011;31998;48.798;15.066;2023-04-24T01:53:48;1201.73;;;82.40;;
46266;SDS011;31998;48.798;15.066;2023-04-24T01:56:13;385.03;;;24.07;;
46266;SDS011;31998;48.798;15.066;2023-04-24T01:58:39;310.10;;;17.90;;
46266;SDS011;31998;48.798;15.066;2023-04-24T02:01:05;72.60;;;9.63;;
46266;SDS011;31998;48.798;15.066;2023-04-24T02:03:31;610.30;;;19.00;;
46266;SDS011;31998;48.798;15.066;2023-04-24T02:05:56;82.73;;;8.77;;
46266;SDS011;31998;48.798;15.066;2023-04-24T02:08:21;10.30;;;7.47;;
46266;SDS011;31998;48.798;15.066;2023-04-24T02:10:46;13.87;;;8.13;;
46266;SDS011;31998;48.798;15.066;2023-04-24T02:13:12;409.50;;;27.30;;
46266;SDS011;31998;48.798;15.066;2023-04-24T02:15:37;15.93;;;8.47;;
46266;SDS011;31998;48.798;15.066;2023-04-24T02:18:02;112.07;;;11.50;;
46266;SDS011;31998;48.798;15.066;2023-04-24T02:20:27;552.90;;;23.20;;
46266;SDS011;31998;48.798;15.066;2023-04-24T02:22:53;202.37;;;14.43;;
46266;SDS011;31998;48.798;15.066;2023-04-24T02:25:18;8.83;;;7.27;;
46266;SDS011;31998;48.798;15.066;2023-04-24T02:27:43;10.23;;;8.20;;
46266;SDS011;31998;48.798;15.066;2023-04-24T02:30:09;19.67;;;9.17;;
46266;SDS011;31998;48.798;15.066;2023-04-24T02:32:35;31.67;;;11.00;;
46266;SDS011;31998;48.798;15.066;2023-04-24T02:35:00;16.03;;;8.60;;
46266;SDS011;31998;48.798;15.066;2023-04-24T02:37:26;22.23;;;9.53;;
46266;SDS011;31998;48.798;15.066;2023-04-24T02:39:51;310.57;;;27.67;;
46266;SDS011;31998;48.798;15.066;2023-04-24T02:42:16;482.73;;;20.63;;
46266;SDS011;31998;48.798;15.066;2023-04-24T02:44:42;479.90;;;22.33;;
46266;SDS011;31998;48.798;15.066;2023-04-24T02:47:07;308.70;;;11.93;;
46266;SDS011;31998;48.798;15.066;2023-04-24T02:49:33;460.93;;;24.83;;
46266;SDS011;31998;48.798;15.066;2023-04-24T02:51:58;163.73;;;13.43;;
46266;SDS011;31998;48.798;15.066;2023-04-24T02:54:24;182.03;;;15.27;;
46266;SDS011;31998;48.798;15.066;2023-04-24T02:56:49;301.73;;;16.50;;
46266;SDS011;31998;48.798;15.066;2023-04-24T02:59:14;285.00;;;18.00;;
46266;SDS011;31998;48.798;15.066;2023-04-24T03:01:39;410.07;;;19.33;;
46266;SDS011;31998;48.798;15.066;2023-04-24T03:04:05;330.53;;;21.13;;
46266;SDS011;31998;48.798;15.066;2023-04-24T03:06:30;558.43;;;35.40;;
46266;SDS011;31998;48.798;15.066;2023-04-24T03:08:57;608.57;;;31.83;;
46266;SDS011;31998;48.798;15.066;2023-04-24T03:11:23;688.63;;;22.43;;
46266;SDS011;31998;48.798;15.066;2023-04-24T03:13:48;321.87;;;17.37;;
46266;SDS011;31998;48.798;15.066;2023-04-24T03:16:13;247.73;;;12.37;;
46266;SDS011;31998;48.798;15.066;2023-04-24T03:18:38;755.73;;;50.13;;
46266;SDS011;31998;48.798;15.066;2023-04-24T03:21:03;763.90;;;40.20;;
46266;SDS011;31998;48.798;15.066;2023-04-24T03:23:29;796.83;;;27.50;;
46266;SDS011;31998;48.798;15.066;2023-04-24T03:25:54;393.77;;;11.27;;
46266;SDS011;31998;48.798;15.066;2023-04-24T03:28:20;501.97;;;15.70;;
46266;SDS011;31998;48.798;15.066;2023-04-24T03:30:45;699.57;;;35.07;;
46266;SDS011;31998;48.798;15.066;2023-04-24T03:33:10;106.90;;;10.93;;
46266;SDS011;31998;48.798;15.066;2023-04-24T03:35:35;328.30;;;18.83;;
46266;SDS011;31998;48.798;15.066;2023-04-24T03:38:01;94.13;;;13.97;;
46266;SDS011;31998;48.798;15.066;2023-04-24T03:40:26;397.77;;;36.77;;
46266;SDS011;31998;48.798;15.066;2023-04-24T03:42:53;210.97;;;12.67;;
46266;SDS011;31998;48.798;15.066;2023-04-24T03:45:18;406.00;;;16.57;;
46266;SDS011;31998;48.798;15.066;2023-04-24T03:47:44;613.57;;;20.40;;
46266;SDS011;31998;48.798;15.066;2023-04-24T03:50:09;251.27;;;17.17;;
46266;SDS011;31998;48.798;15.066;2023-04-24T03:52:34;10.80;;;5.37;;
46266;SDS011;31998;48.798;15.066;2023-04-24T03:55:00;7.07;;;5.90;;
46266;SDS011;31998;48.798;15.066;2023-04-24T03:57:25;8.83;;;6.53;;
46266;SDS011;31998;48.798;15.066;2023-04-24T03:59:50;10.77;;;6.70;;
46266;SDS011;31998;48.798;15.066;2023-04-24T04:02:16;20.50;;;7.30;;
46266;SDS011;31998;48.798;15.066;2023-04-24T04:04:41;100.67;;;13.30;;
46266;SDS011;31998;48.798;15.066;2023-04-24T04:07:06;65.00;;;6.20;;
46266;SDS011;31998;48.798;15.066;2023-04-24T04:09:32;128.33;;;10.33;;
46266;SDS011;31998;48.798;15.066;2023-04-24T04:11:58;16.87;;;5.47;;
46266;SDS011;31998;48.798;15.066;2023-04-24T04:14:23;29.50;;;7.00;;
46266;SDS011;31998;48.798;15.066;2023-04-24T04:16:49;14.50;;;5.00;;
46266;SDS011;31998;48.798;15.066;2023-04-24T04:19:14;5.93;;;5.33;;
46266;SDS011;31998;48.798;15.066;2023-04-24T04:21:39;17.90;;;5.63;;
46266;SDS011;31998;48.798;15.066;2023-04-24T04:24:05;11.70;;;5.40;;
46266;SDS011;31998;48.798;15.066;2023-04-24T04:26:30;6.33;;;5.10;;
46266;SDS011;31998;48.798;15.066;2023-04-24T04:28:57;8.73;;;5.70;;
46266;SDS011;31998;48.798;15.066;2023-04-24T04:31:23;5.27;;;4.90;;
46266;SDS011;31998;48.798;15.066;2023-04-24T04:33:48;5.17;;;4.77;;
46266;SDS011;31998;48.798;15.066;2023-04-24T04:36:13;15.20;;;5.43;;
46266;SDS011;31998;48.798;15.066;2023-04-24T04:38:38;5.43;;;5.07;;
46266;SDS011;31998;48.798;15.066;2023-04-24T04:41:05;4.80;;;4.07;;
46266;SDS011;31998;48.798;15.066;2023-04-24T04:43:30;7.63;;;6.00;;
46266;SDS011;31998;48.798;15.066;2023-04-24T04:45:57;7.07;;;6.40;;
46266;SDS011;31998;48.798;15.066;2023-04-24T04:48:22;11.77;;;8.20;;
46266;SDS011;31998;48.798;15.066;2023-04-24T04:50:48;11.47;;;8.87;;
46266;SDS011;31998;48.798;15.066;2023-04-24T04:53:13;16.37;;;8.90;;
46266;SDS011;31998;48.798;15.066;2023-04-24T04:55:38;10.40;;;6.87;;
46266;SDS011;31998;48.798;15.066;2023-04-24T04:58:03;9.97;;;7.30;;
46266;SDS011;31998;48.798;15.066;2023-04-24T05:00:29;7.00;;;6.30;;
46266;SDS011;31998;48.798;15.066;2023-04-24T05:02:59;7.77;;;6.43;;
46266;SDS011;31998;48.798;15.066;2023-04-24T05:05:24;13.80;;;8.93;;
46266;SDS011;31998;48.798;15.066;2023-04-24T05:07:49;14.43;;;9.97;;
46266;SDS011;31998;48.798;15.066;2023-04-24T05:10:15;13.70;;;9.33;;
46266;SDS011;31998;48.798;15.066;2023-04-24T05:12:40;9.47;;;8.20;;
46266;SDS011;31998;48.798;15.066;2023-04-24T05:15:05;9.80;;;8.27;;
46266;SDS011;31998;48.798;15.066;2023-04-24T05:17:31;13.10;;;8.83;;
46266;SDS011;31998;48.798;15.066;2023-04-24T05:19:56;16.33;;;9.27;;
46266;SDS011;31998;48.798;15.066;2023-04-24T05:22:21;22.77;;;12.90;;
46266;SDS011;31998;48.798;15.066;2023-04-24T05:24:47;31.03;;;20.67;;
46266;SDS011;31998;48.798;15.066;2023-04-24T05:27:12;50.80;;;30.70;;
46266;SDS011;31998;48.798;15.066;2023-04-24T05:29:37;60.47;;;31.90;;
46266;SDS011;31998;48.798;15.066;2023-04-24T05:32:03;52.73;;;26.73;;
46266;SDS011;31998;48.798;15.066;2023-04-24T05:34:28;26.90;;;15.70;;
46266;SDS011;31998;48.798;15.066;2023-04-24T05:36:53;31.77;;;17.10;;
46266;SDS011;31998;48.798;15.066;2023-04-24T05:39:18;33.37;;;17.00;;
46266;SDS011;31998;48.798;15.066;2023-04-24T05:41:44;27.27;;;16.73;;
46266;SDS011;31998;48.798;15.066;2023-04-24T05:44:10;28.70;;;16.90;;
46266;SDS011;31998;48.798;15.066;2023-04-24T05:46:35;34.50;;;19.90;;
46266;SDS011;31998;48.798;15.066;2023-04-24T05:49:00;38.10;;;17.50;;
46266;SDS011;31998;48.798;15.066;2023-04-24T05:51:26;25.60;;;13.30;;
46266;SDS011;31998;48.798;15.066;2023-04-24T05:53:51;29.20;;;13.37;;
46266;SDS011;31998;48.798;15.066;2023-04-24T05:56:16;19.63;;;14.07;;
46266;SDS011;31998;48.798;15.066;2023-04-24T05:58:42;20.57;;;14.40;;
46266;SDS011;31998;48.798;15.066;2023-04-24T06:01:07;25.57;;;15.07;;
46266;SDS011;31998;48.798;15.066;2023-04-24T06:03:32;42.77;;;15.00;;
46266;SDS011;31998;48.798;15.066;2023-04-24T06:05:58;25.13;;;14.37;;
46266;SDS011;31998;48.798;15.066;2023-04-24T06:08:23;30.63;;;15.57;;
46266;SDS011;31998;48.798;15.066;2023-04-24T06:10:48;31.03;;;13.50;;
46266;SDS011;31998;48.798;15.066;2023-04-24T06:13:14;24.00;;;12.90;;
46266;SDS011;31998;48.798;15.066;2023-04-24T06:15:40;20.27;;;12.80;;
46266;SDS011;31998;48.798;15.066;2023-04-24T06:18:05;23.13;;;14.00;;
46266;SDS011;31998;48.798;15.066;2023-04-24T06:20:31;23.57;;;15.47;;
46266;SDS011;31998;48.798;15.066;2023-04-24T06:22:56;25.97;;;14.80;;
46266;SDS011;31998;48.798;15.066;2023-04-24T06:25:21;28.53;;;15.07;;
46266;SDS011;31998;48.798;15.066;2023-04-24T06:27:46;23.57;;;13.97;;
46266;SDS011;31998;48.798;15.066;2023-04-24T06:30:12;13.57;;;12.17;;
46266;SDS011;31998;48.798;15.066;2023-04-24T06:32:37;28.03;;;16.80;;
46266;SDS011;31998;48.798;15.066;2023-04-24T06:35:02;31.13;;;20.73;;
46266;SDS011;31998;48.798;15.066;2023-04-24T06:37:28;13.77;;;9.40;;
46266;SDS011;31998;48.798;15.066;2023-04-24T06:39:53;18.83;;;8.93;;
46266;SDS011;31998;48.798;15.066;2023-04-24T06:42:18;12.30;;;8.43;;
46266;SDS011;31998;48.798;15.066;2023-04-24T06:44:45;8.97;;;8.13;;
46266;SDS011;31998;48.798;15.066;2023-04-24T06:47:11;8.47;;;7.07;;
46266;SDS011;31998;48.798;15.066;2023-04-24T06:49:38;6.50;;;5.93;;
46266;SDS011;31998;48.798;15.066;2023-04-24T06:52:03;8.17;;;6.30;;
46266;SDS011;31998;48.798;15.066;2023-04-24T06:54:29;6.63;;;6.00;;
46266;SDS011;31998;48.798;15.066;2023-04-24T06:56:54;6.17;;;5.67;;
46266;SDS011;31998;48.798;15.066;2023-04-24T06:59:20;8.33;;;5.00;;
46266;SDS011;31998;48.798;15.066;2023-04-24T07:01:45;5.00;;;4.70;;
46266;SDS011;31998;48.798;15.066;2023-04-24T07:04:10;7.40;;;4.80;;
46266;SDS011;31998;48.798;15.066;2023-04-24T07:06:37;5.90;;;5.30;;
46266;SDS011;31998;48.798;15.066;2023-04-24T07:09:02;6.67;;;5.17;;
46266;SDS011;31998;48.798;15.066;2023-04-24T07:11:28;4.43;;;4.07;;
46266;SDS011;31998;48.798;15.066;2023-04-24T07:13:54;5.63;;;5.20;;
46266;SDS011;31998;48.798;15.066;2023-04-24T07:16:19;9.67;;;5.23;;
46266;SDS011;31998;48.798;15.066;2023-04-24T07:18:44;4.60;;;4.30;;
46266;SDS011;31998;48.798;15.066;2023-04-24T07:21:10;5.20;;;4.73;;
46266;SDS011;31998;48.798;15.066;2023-04-24T07:23:35;5.10;;;4.70;;
46266;SDS011;31998;48.798;15.066;2023-04-24T07:26:01;4.60;;;4.40;;
46266;SDS011;31998;48.798;15.066;2023-04-24T07:28:26;4.13;;;3.83;;
46266;SDS011;31998;48.798;15.066;2023-04-24T07:30:51;7.90;;;5.20;;
46266;SDS011;31998;48.798;15.066;2023-04-24T07:33:18;6.53;;;4.93;;
46266;SDS011;31998;48.798;15.066;2023-04-24T07:35:44;4.60;;;4.40;;
46266;SDS011;31998;48.798;15.066;2023-04-24T07:38:09;4.80;;;4.57;;
46266;SDS011;31998;48.798;15.066;2023-04-24T07:40:35;8.37;;;5.80;;
46266;SDS011;31998;48.798;15.066;2023-04-24T07:43:00;7.10;;;5.50;;
46266;SDS011;31998;48.798;15.066;2023-04-24T07:45:25;3.33;;;3.00;;
46266;SDS011;31998;48.798;15.066;2023-04-24T07:47:52;3.30;;;3.10;;
46266;SDS011;31998;48.798;15.066;2023-04-24T07:50:18;2.90;;;2.70;;
46266;SDS011;31998;48.798;15.066;2023-04-24T07:52:43;3.27;;;3.07;;
46266;SDS011;31998;48.798;15.066;2023-04-24T07:55:08;3.63;;;3.43;;
46266;SDS011;31998;48.798;15.066;2023-04-24T07:57:34;2.93;;;2.83;;
46266;SDS011;31998;48.798;15.066;2023-04-24T07:59:59;3.57;;;3.47;;
46266;SDS011;31998;48.798;15.066;2023-04-24T08:02:24;3.80;;;3.50;;
46266;SDS011;31998;48.798;15.066;2023-04-24T08:04:54;5.93;;;4.00;;
46266;SDS011;31998;48.798;15.066;2023-04-24T08:07:20;5.47;;;4.13;;
46266;SDS011;31998;48.798;15.066;2023-04-24T08:09:45;5.13;;;4.73;;
46266;SDS011;31998;48.798;15.066;2023-04-24T08:12:10;4.20;;;3.90;;
46266;SDS011;31998;48.798;15.066;2023-04-24T08:14:36;5.33;;;3.90;;
46266;SDS011;31998;48.798;15.066;2023-04-24T08:17:01;3.77;;;3.63;;
46266;SDS011;31998;48.798;15.066;2023-04-24T08:19:27;4.13;;;3.93;;
46266;SDS011;31998;48.798;15.066;2023-04-24T08:21:52;4.17;;;3.50;;
46266;SDS011;31998;48.798;15.066;2023-04-24T08:24:17;3.80;;;3.70;;
46266;SDS011;31998;48.798;15.066;2023-04-24T08:26:43;4.13;;;3.93;;
46266;SDS011;31998;48.798;15.066;2023-04-24T08:29:08;3.13;;;3.03;;
46266;SDS011;31998;48.798;15.066;2023-04-24T08:31:33;2.80;;;2.70;;
46266;SDS011;31998;48.798;15.066;2023-04-24T08:33:58;3.03;;;2.93;;
46266;SDS011;31998;48.798;15.066;2023-04-24T08:36:25;3.27;;;2.97;;
46266;SDS011;31998;48.798;15.066;2023-04-24T08:38:51;2.77;;;2.60;;
46266;SDS011;31998;48.798;15.066;2023-04-24T08:41:16;8.43;;;3.50;;
46266;SDS011;31998;48.798;15.066;2023-04-24T08:43:42;3.40;;;3.00;;
46266;SDS011;31998;48.798;15.066;2023-04-24T08:46:08;3.27;;;3.17;;
46266;SDS011;31998;48.798;15.066;2023-04-24T08:48:35;2.40;;;2.30;;
46266;SDS011;31998;48.798;15.066;2023-04-24T08:51:00;2.50;;;2.33;;
46266;SDS011;31998;48.798;15.066;2023-04-24T08:53:27;2.10;;;2.00;;
46266;SDS011;31998;48.798;15.066;2023-04-24T08:55:53;3.00;;;2.90;;
46266;SDS011;31998;48.798;15.066;2023-04-24T08:58:19;3.27;;;3.07;;
46266;SDS011;31998;48.798;15.066;2023-04-24T09:00:44;3.30;;;3.00;;
46266;SDS011;31998;48.798;15.066;2023-04-24T09:03:12;3.50;;;3.20;;
46266;SDS011;31998;48.798;15.066;2023-04-24T09:05:39;3.73;;;3.33;;
46266;SDS011;31998;48.798;15.066;2023-04-24T09:08:05;3.17;;;2.93;;
46266;SDS011;31998;48.798;15.066;2023-04-24T09:10:32;3.70;;;2.80;;
46266;SDS011;31998;48.798;15.066;2023-04-24T09:12:59;3.97;;;3.00;;
46266;SDS011;31998;48.798;15.066;2023-04-24T09:15:27;2.20;;;2.20;;
46266;SDS011;31998;48.798;15.066;2023-04-24T09:17:52;2.67;;;2.57;;
46266;SDS011;31998;48.798;15.066;2023-04-24T09:20:17;2.20;;;2.20;;
46266;SDS011;31998;48.798;15.066;2023-04-24T09:22:43;2.10;;;1.90;;
46266;SDS011;31998;48.798;15.066;2023-04-24T09:25:10;2.00;;;1.90;;
46266;SDS011;31998;48.798;15.066;2023-04-24T09:27:38;2.67;;;2.20;;
46266;SDS011;31998;48.798;15.066;2023-04-24T09:30:06;2.67;;;2.47;;
46266;SDS011;31998;48.798;15.066;2023-04-24T09:32:33;2.27;;;2.13;;
46266;SDS011;31998;48.798;15.066;2023-04-24T09:37:37;1.70;;;1.70;;
46266;SDS011;31998;48.798;15.066;2023-04-24T09:40:12;1.73;;;1.63;;
46266;SDS011;31998;48.798;15.066;2023-04-24T09:42:38;3.27;;;2.00;;
46266;SDS011;31998;48.798;15.066;2023-04-24T09:45:04;1.70;;;1.70;;
46266;SDS011;31998;48.798;15.066;2023-04-24T09:47:36;1.60;;;1.50;;
46266;SDS011;31998;48.798;15.066;2023-04-24T09:50:12;1.70;;;1.70;;
46266;SDS011;31998;48.798;15.066;2023-04-24T09:52:41;1.90;;;1.87;;
46266;SDS011;31998;48.798;15.066;2023-04-24T09:55:10;5.40;;;1.10;;
46266;SDS011;31998;48.798;15.066;2023-04-24T09:57:35;2.87;;;1.90;;
46266;SDS011;31998;48.798;15.066;2023-04-24T10:00:01;1.20;;;1.20;;
46266;SDS011;31998;48.798;15.066;2023-04-24T10:02:26;4.13;;;1.70;;
46266;SDS011;31998;48.798;15.066;2023-04-24T10:04:55;2.93;;;2.83;;
46266;SDS011;31998;48.798;15.066;2023-04-24T10:07:21;3.27;;;3.17;;
46266;SDS011;31998;48.798;15.066;2023-04-24T10:09:46;2.90;;;2.80;;
46266;SDS011;31998;48.798;15.066;2023-04-24T10:12:12;2.20;;;2.20;;
46266;SDS011;31998;48.798;15.066;2023-04-24T10:14:37;1.67;;;1.67;;
46266;SDS011;31998;48.798;15.066;2023-04-24T10:17:03;9.40;;;2.40;;
46266;SDS011;31998;48.798;15.066;2023-04-24T10:19:29;1.03;;;1.03;;
46266;SDS011;31998;48.798;15.066;2023-04-24T10:21:54;1.33;;;1.13;;
46266;SDS011;31998;48.798;15.066;2023-04-24T10:24:21;1.33;;;1.07;;
46266;SDS011;31998;48.798;15.066;2023-04-24T10:26:46;1.10;;;1.10;;
46266;SDS011;31998;48.798;15.066;2023-04-24T10:29:13;1.30;;;1.30;;
46266;SDS011;31998;48.798;15.066;2023-04-24T10:31:40;1.90;;;1.10;;
46266;SDS011;31998;48.798;15.066;2023-04-24T10:34:05;5.03;;;1.50;;
46266;SDS011;31998;48.798;15.066;2023-04-24T10:36:32;1.63;;;1.57;;
46266;SDS011;31998;48.798;15.066;2023-04-24T10:38:59;3.73;;;1.70;;
46266;SDS011;31998;48.798;15.066;2023-04-24T10:41:25;1.50;;;1.33;;
46266;SDS011;31998;48.798;15.066;2023-04-24T10:44:06;5.47;;;1.57;;
46266;SDS011;31998;48.798;15.066;2023-04-24T10:46:32;1.00;;;1.00;;
46266;SDS011;31998;48.798;15.066;2023-04-24T10:48:57;3.97;;;1.83;;
46266;SDS011;31998;48.798;15.066;2023-04-24T10:51:23;15.53;;;2.07;;
46266;SDS011;31998;48.798;15.066;2023-04-24T10:53:52;2.50;;;2.40;;
46266;SDS011;31998;48.798;15.066;2023-04-24T10:56:17;1.20;;;1.13;;
46266;SDS011;31998;48.798;15.066;2023-04-24T10:58:50;1.50;;;1.40;;
46266;SDS011;31998;48.798;15.066;2023-04-24T11:01:27;1.20;;;1.20;;
46266;SDS011;31998;48.798;15.066;2023-04-24T11:03:59;1.63;;;1.40;;
46266;SDS011;31998;48.798;15.066;2023-04-24T11:06:34;1.43;;;1.30;;
46266;SDS011;31998;48.798;15.066;2023-04-24T11:09:03;1.20;;;1.20;;
46266;SDS011;31998;48.798;15.066;2023-04-24T11:11:30;2.10;;;0.80;;
46266;SDS011;31998;48.798;15.066;2023-04-24T11:19:23;1.93;;;0.80;;
46266;SDS011;31998;48.798;15.066;2023-04-24T11:26:51;0.50;;;0.50;;
46266;SDS011;31998;48.798;15.066;2023-04-24T11:29:19;1.80;;;0.87;;
46266;SDS011;31998;48.798;15.066;2023-04-24T11:31:44;0.80;;;0.80;;
46266;SDS011;31998;48.798;15.066;2023-04-24T11:34:14;1.40;;;1.40;;
46266;SDS011;31998;48.798;15.066;2023-04-24T11:36:45;0.80;;;0.73;;
46266;SDS011;31998;48.798;15.066;2023-04-24T11:39:11;0.40;;;0.40;;
46266;SDS011;31998;48.798;15.066;2023-04-24T11:41:37;0.50;;;0.40;;
46266;SDS011;31998;48.798;15.066;2023-04-24T11:44:03;0.67;;;0.67;;
46266;SDS011;31998;48.798;15.066;2023-04-24T11:46:30;2.23;;;0.40;;
46266;SDS011;31998;48.798;15.066;2023-04-24T11:48:56;0.70;;;0.60;;
46266;SDS011;31998;48.798;15.066;2023-04-24T11:51:25;1.10;;;1.10;;
46266;SDS011;31998;48.798;15.066;2023-04-24T11:53:51;0.40;;;0.40;;
46266;SDS011;31998;48.798;15.066;2023-04-24T11:56:17;0.50;;;0.50;;
46266;SDS011;31998;48.798;15.066;2023-04-24T11:58:44;0.50;;;0.50;;
46266;SDS011;31998;48.798;15.066;2023-04-24T12:01:09;0.83;;;0.83;;
46266;SDS011;31998;48.798;15.066;2023-04-24T12:03:34;0.40;;;0.40;;
46266;SDS011;31998;48.798;15.066;2023-04-24T12:06:09;1.77;;;0.40;;
46266;SDS011;31998;48.798;15.066;2023-04-24T12:08:35;0.60;;;0.60;;
46266;SDS011;31998;48.798;15.066;2023-04-24T12:11:01;0.57;;;0.40;;
46266;SDS011;31998;48.798;15.066;2023-04-24T12:13:27;4.67;;;0.67;;
46266;SDS011;31998;48.798;15.066;2023-04-24T12:15:52;1.53;;;0.43;;
46266;SDS011;31998;48.798;15.066;2023-04-24T12:18:17;0.47;;;0.47;;
46266;SDS011;31998;48.798;15.066;2023-04-24T12:20:42;0.83;;;0.83;;
46266;SDS011;31998;48.798;15.066;2023-04-24T12:23:08;0.50;;;0.50;;
46266;SDS011;31998;48.798;15.066;2023-04-24T12:25:33;1.80;;;0.50;;
46266;SDS011;31998;48.798;15.066;2023-04-24T12:30:28;0.50;;;0.50;;
46266;SDS011;31998;48.798;15.066;2023-04-24T12:32:54;1.47;;;0.80;;
46266;SDS011;31998;48.798;15.066;2023-04-24T12:35:20;2.30;;;2.10;;
46266;SDS011;31998;48.798;15.066;2023-04-24T12:37:46;2.10;;;2.00;;
46266;SDS011;31998;48.798;15.066;2023-04-24T12:40:11;1.50;;;1.20;;
46266;SDS011;31998;48.798;15.066;2023-04-24T12:42:44;0.73;;;0.73;;
46266;SDS011;31998;48.798;15.066;2023-04-24T12:45:10;0.70;;;0.70;;
46266;SDS011;31998;48.798;15.066;2023-04-24T12:47:37;0.63;;;0.63;;
46266;SDS011;31998;48.798;15.066;2023-04-24T12:50:02;0.60;;;0.60;;
46266;SDS011;31998;48.798;15.066;2023-04-24T12:52:28;0.97;;;0.67;;
46266;SDS011;31998;48.798;15.066;2023-04-24T12:54:54;1.50;;;1.40;;
46266;SDS011;31998;48.798;15.066;2023-04-24T12:57:20;1.10;;;0.90;;
46266;SDS011;31998;48.798;15.066;2023-04-24T12:59:45;2.53;;;0.60;;
46266;SDS011;31998;48.798;15.066;2023-04-24T13:02:11;3.20;;;0.70;;
46266;SDS011;31998;48.798;15.066;2023-04-24T13:04:36;1.67;;;0.80;;
46266;SDS011;31998;48.798;15.066;2023-04-24T13:07:01;5.53;;;5.03;;
46266;SDS011;31998;48.798;15.066;2023-04-24T13:09:27;0.90;;;0.90;;
46266;SDS011;31998;48.798;15.066;2023-04-24T13:11:52;1.30;;;1.20;;
46266;SDS011;31998;48.798;15.066;2023-04-24T13:14:17;0.67;;;0.67;;
46266;SDS011;31998;48.798;15.066;2023-04-24T13:16:42;2.60;;;2.50;;
46266;SDS011;31998;48.798;15.066;2023-04-24T13:19:08;0.70;;;0.70;;
46266;SDS011;31998;48.798;15.066;2023-04-24T13:21:33;1.93;;;1.93;;
46266;SDS011;31998;48.798;15.066;2023-04-24T13:23:58;0.60;;;0.60;;
46266;SDS011;31998;48.798;15.066;2023-04-24T13:26:23;0.90;;;0.90;;
46266;SDS011;31998;48.798;15.066;2023-04-24T13:28:49;0.53;;;0.53;;
46266;SDS011;31998;48.798;15.066;2023-04-24T13:31:14;0.67;;;0.67;;
46266;SDS011;31998;48.798;15.066;2023-04-24T13:33:39;2.30;;;0.90;;
46266;SDS011;31998;48.798;15.066;2023-04-24T13:36:05;0.77;;;0.77;;
46266;SDS011;31998;48.798;15.066;2023-04-24T13:38:30;0.80;;;0.80;;
46266;SDS011;31998;48.798;15.066;2023-04-24T13:40:55;1.57;;;1.47;;
46266;SDS011;31998;48.798;15.066;2023-04-24T13:43:21;0.73;;;0.73;;
46266;SDS011;31998;48.798;15.066;2023-04-24T13:45:46;1.60;;;1.60;;
46266;SDS011;31998;48.798;15.066;2023-04-24T13:48:11;1.67;;;1.67;;
46266;SDS011;31998;48.798;15.066;2023-04-24T13:50:36;3.03;;;2.20;;
46266;SDS011;31998;48.798;15.066;2023-04-24T13:53:02;5.57;;;4.33;;
46266;SDS011;31998;48.798;15.066;2023-04-24T13:55:27;4.00;;;3.70;;
46266;SDS011;31998;48.798;15.066;2023-04-24T13:57:52;6.70;;;5.00;;
46266;SDS011;31998;48.798;15.066;2023-04-24T14:00:20;2.37;;;2.27;;
46266;SDS011;31998;48.798;15.066;2023-04-24T14:02:45;1.87;;;1.77;;
46266;SDS011;31998;48.798;15.066;2023-04-24T14:05:10;3.40;;;3.20;;
46266;SDS011;31998;48.798;15.066;2023-04-24T14:07:36;3.70;;;3.50;;
46266;SDS011;31998;48.798;15.066;2023-04-24T14:10:01;1.73;;;1.63;;
46266;SDS011;31998;48.798;15.066;2023-04-24T14:12:27;4.40;;;1.93;;
46266;SDS011;31998;48.798;15.066;2023-04-24T14:14:52;2.70;;;1.73;;
46266;SDS011;31998;48.798;15.066;2023-04-24T14:17:18;2.40;;;2.27;;
46266;SDS011;31998;48.798;15.066;2023-04-24T14:19:43;1.80;;;1.77;;
46266;SDS011;31998;48.798;15.066;2023-04-24T14:22:09;2.17;;;2.07;;
46266;SDS011;31998;48.798;15.066;2023-04-24T14:24:34;2.60;;;1.57;;
46266;SDS011;31998;48.798;15.066;2023-04-24T14:27:00;1.77;;;1.77;;
46266;SDS011;31998;48.798;15.066;2023-04-24T14:29:25;2.27;;;2.10;;
46266;SDS011;31998;48.798;15.066;2023-04-24T14:31:51;2.50;;;1.60;;